Los Angeles, California
Traffic Map
Current Weather Conditions
Los Angeles, California
Clear
Clear
27°
Feels Like: 27°
Wind Chill: 27° Ceiling: Unl
Heat Index: 27° Visibility: 10mi
Dew Point: 17° Wind: 5mph
Humidity: 56% Direction: 280° (W)
Pressure: 29.93in Gusts: 0mph
Raw Report DataKCQT 291947Z AUTO 28004KT 10SM CLR 27/17 A2993 RMK AO2 SLP134 T02670172
Traffic Incident Summary
Active as of:
Severity:
Category:
InformationThere was an issue retrieving the traffic information for this location. Please try a different location or try again shortly.
Advertisements
Track Severe Weather on mobile